createdAt,value
2023-05-12T00:00:57.386Z,48.82
2023-05-12T00:04:58.817Z,48.55
2023-05-12T00:09:00.549Z,48.78
2023-05-12T00:13:02.580Z,48.88
2023-05-12T00:17:06.338Z,48.58
2023-05-12T00:21:08.699Z,48.33
2023-05-12T00:25:10.068Z,48.33
2023-05-12T00:29:11.444Z,49.00
2023-05-12T00:33:12.973Z,48.41
2023-05-12T00:37:14.340Z,48.82
2023-05-12T00:41:16.142Z,48.82
2023-05-12T00:45:17.693Z,48.92
2023-05-12T00:49:20.437Z,49.06
2023-05-12T00:53:21.914Z,49.65
2023-05-12T00:57:27.671Z,49.26
2023-05-12T01:01:30.253Z,49.55
2023-05-12T01:05:39.182Z,49.44
2023-05-12T01:09:40.516Z,49.45
2023-05-12T01:13:41.819Z,49.54
2023-05-12T01:17:48.936Z,49.63
2023-05-12T01:21:50.950Z,49.64
2023-05-12T01:25:52.594Z,49.49
2023-05-12T01:29:57.758Z,50.08
2023-05-12T01:33:59.159Z,50.27
2023-05-12T01:38:01.000Z,49.35
2023-05-12T01:42:05.827Z,49.71
2023-05-12T01:46:07.120Z,49.71
2023-05-12T01:50:09.038Z,50.06
2023-05-12T01:54:10.347Z,49.81
2023-05-12T01:58:11.669Z,50.76
2023-05-12T02:02:12.999Z,50.40
2023-05-12T02:06:16.622Z,50.17
2023-05-12T02:10:18.399Z,49.76
2023-05-12T02:14:20.014Z,49.68
2023-05-12T02:18:21.404Z,49.14
2023-05-12T02:22:22.779Z,49.84
2023-05-12T02:26:24.097Z,49.12
2023-05-12T02:30:25.388Z,49.40
2023-05-12T02:34:26.761Z,49.39
2023-05-12T02:38:28.087Z,49.83
2023-05-12T02:42:35.018Z,49.92
2023-05-12T02:46:37.268Z,49.77
2023-05-12T02:50:38.712Z,49.12
2023-05-12T02:54:40.059Z,49.62
2023-05-12T02:58:41.735Z,50.88
2023-05-12T03:02:43.214Z,50.27
2023-05-12T03:06:44.752Z,52.02
2023-05-12T03:10:49.273Z,52.42
2023-05-12T03:14:51.385Z,51.51
2023-05-12T03:18:52.835Z,52.51
2023-05-12T03:22:54.288Z,56.62
2023-05-12T03:26:55.826Z,54.24
2023-05-12T03:30:57.157Z,54.78
2023-05-12T03:34:58.818Z,55.51
2023-05-12T03:39:00.414Z,50.70
2023-05-12T03:43:01.709Z,53.39
2023-05-12T03:47:03.155Z,52.46
2023-05-12T03:51:04.682Z,52.60
2023-05-12T03:55:06.986Z,51.92
2023-05-12T03:59:08.462Z,49.88
2023-05-12T04:03:09.890Z,49.31
2023-05-12T04:07:11.501Z,50.54
2023-05-12T04:11:13.991Z,49.70
2023-05-12T04:15:15.646Z,48.68
2023-05-12T04:19:17.045Z,48.85
2023-05-12T04:23:18.490Z,48.41
2023-05-12T04:27:19.789Z,48.66
2023-05-12T04:31:21.249Z,47.99
2023-05-12T04:35:22.657Z,48.93
2023-05-12T04:39:23.988Z,50.66
2023-05-12T04:47:29.874Z,47.71
2023-05-12T04:51:32.055Z,48.78
2023-05-12T04:55:33.388Z,47.02
2023-05-12T04:59:35.950Z,48.19
2023-05-12T05:03:37.357Z,47.21
2023-05-12T05:07:38.901Z,46.76
2023-05-12T05:11:40.339Z,46.31
2023-05-12T05:15:49.575Z,46.48
2023-05-12T05:19:58.301Z,45.59
2023-05-12T05:24:00.814Z,46.14
2023-05-12T05:28:03.420Z,45.86
2023-05-12T05:32:05.264Z,45.28
2023-05-12T05:36:06.966Z,46.10
2023-05-12T05:40:09.254Z,45.56
2023-05-12T05:44:10.590Z,46.42
2023-05-12T05:48:12.235Z,45.39
2023-05-12T05:52:13.619Z,45.16
2023-05-12T05:56:14.907Z,44.95
2023-05-12T06:00:16.436Z,45.37
2023-05-12T06:04:17.816Z,45.49
2023-05-12T06:08:19.508Z,44.45
2023-05-12T06:12:20.903Z,44.47
2023-05-12T06:16:23.593Z,43.75
2023-05-12T06:20:36.352Z,44.48
2023-05-12T06:24:37.634Z,43.85
2023-05-12T06:28:39.064Z,42.87
2023-05-12T06:32:40.478Z,43.63
2023-05-12T06:36:41.982Z,41.79
2023-05-12T06:40:43.332Z,40.55
2023-05-12T06:44:45.561Z,40.13
2023-05-12T06:48:47.072Z,40.46
2023-05-12T06:52:48.502Z,41.98
2023-05-12T06:56:50.004Z,39.93
2023-05-12T07:00:51.385Z,39.94
2023-05-12T07:04:52.750Z,38.09
2023-05-12T07:08:55.278Z,38.49
2023-05-12T07:12:56.564Z,39.60
2023-05-12T07:16:57.912Z,37.06
2023-05-12T07:20:59.675Z,37.24
2023-05-12T07:25:01.060Z,39.08
2023-05-12T07:29:03.959Z,38.42
2023-05-12T07:33:05.779Z,38.99
2023-05-12T07:37:07.160Z,37.52
2023-05-12T07:41:08.493Z,37.72
2023-05-12T07:45:10.121Z,37.77
2023-05-12T07:49:11.480Z,38.98
2023-05-12T07:53:12.948Z,39.09
2023-05-12T07:57:14.265Z,38.60
2023-05-12T08:01:15.606Z,39.62
2023-05-12T08:05:17.280Z,39.04
2023-05-12T08:09:18.681Z,40.80
2023-05-12T08:13:20.058Z,38.13
2023-05-12T08:17:21.376Z,38.84
2023-05-12T08:21:22.696Z,35.49
2023-05-12T08:25:24.101Z,34.19
2023-05-12T08:29:25.492Z,35.01
2023-05-12T08:33:27.530Z,35.76
2023-05-12T08:37:29.107Z,35.29
2023-05-12T08:41:44.763Z,36.17
2023-05-12T08:45:47.312Z,34.89
2023-05-12T08:49:59.636Z,35.87
2023-05-12T08:54:03.681Z,34.92
2023-05-12T08:58:05.105Z,33.92
2023-05-12T09:02:08.832Z,33.81
2023-05-12T09:06:11.650Z,33.58
2023-05-12T09:10:32.865Z,31.95
2023-05-12T09:14:37.536Z,30.29
2023-05-12T09:18:55.093Z,31.57
2023-05-12T09:22:58.180Z,33.32
2023-05-12T09:26:59.589Z,30.89
2023-05-12T09:31:01.018Z,33.91
2023-05-12T09:35:06.583Z,32.75
2023-05-12T09:39:09.320Z,31.38
2023-05-12T09:43:12.526Z,31.12
2023-05-12T09:47:15.976Z,29.85
2023-05-12T09:51:21.419Z,29.82
2023-05-12T09:55:22.763Z,29.58
2023-05-12T09:59:28.228Z,28.91
2023-05-12T10:03:30.837Z,31.35
2023-05-12T10:07:33.090Z,29.29
2023-05-12T10:11:35.737Z,28.93
2023-05-12T10:15:37.333Z,24.93
2023-05-12T10:19:41.028Z,23.63
2023-05-12T10:23:44.349Z,24.90
2023-05-12T10:27:47.138Z,23.97
2023-05-12T10:31:49.612Z,24.56
2023-05-12T10:35:52.352Z,24.08
2023-05-12T10:39:53.887Z,21.59
2023-05-12T10:43:55.240Z,21.29
2023-05-12T10:48:06.859Z,21.40
2023-05-12T10:52:11.710Z,23.03
2023-05-12T10:56:13.358Z,28.76
2023-05-12T11:00:15.659Z,34.68
2023-05-12T11:04:19.401Z,31.49
2023-05-12T11:08:23.390Z,32.49
2023-05-12T11:12:29.225Z,34.20
2023-05-12T11:16:30.596Z,33.01
2023-05-12T11:20:32.451Z,31.71
2023-05-12T11:24:34.226Z,31.92
2023-05-12T11:28:42.095Z,27.66
2023-05-12T11:32:43.785Z,26.96
2023-05-12T11:36:45.420Z,25.48
2023-05-12T11:40:47.086Z,26.11
2023-05-12T11:44:49.761Z,23.92
2023-05-12T11:48:58.462Z,22.60
2023-05-12T11:52:59.847Z,24.76
2023-05-12T11:57:01.241Z,22.69
2023-05-12T12:01:11.106Z,23.35
2023-05-12T12:05:21.128Z,22.11
2023-05-12T12:09:37.011Z,23.30
2023-05-12T12:13:38.322Z,23.33
2023-05-12T12:17:40.514Z,21.83
2023-05-12T12:21:42.670Z,22.51
2023-05-12T12:25:44.133Z,22.01
2023-05-12T12:29:45.467Z,23.55
2023-05-12T12:33:46.792Z,22.74
2023-05-12T12:37:51.674Z,23.12
2023-05-12T12:41:53.961Z,23.03
2023-05-12T12:45:55.291Z,22.83
2023-05-12T12:49:56.859Z,23.35
2023-05-12T12:53:58.408Z,22.55
2023-05-12T12:57:59.770Z,22.60
2023-05-12T13:02:02.450Z,22.57
2023-05-12T13:06:03.931Z,24.00
2023-05-12T13:10:05.708Z,28.16
2023-05-12T13:14:08.113Z,26.51
2023-05-12T13:18:10.282Z,27.06
2023-05-12T13:22:11.727Z,26.40
2023-05-12T13:26:13.807Z,27.35
2023-05-12T13:30:15.328Z,26.87
2023-05-12T13:34:16.838Z,24.25
2023-05-12T13:38:19.728Z,23.55
2023-05-12T13:42:22.361Z,22.65
2023-05-12T13:46:24.011Z,23.14
2023-05-12T13:50:25.510Z,22.64
2023-05-12T13:54:26.874Z,21.72
2023-05-12T13:58:30.759Z,22.53
2023-05-12T14:02:32.088Z,21.98
2023-05-12T14:06:33.554Z,22.81
2023-05-12T14:10:35.342Z,22.51
2023-05-12T14:14:36.755Z,22.37
2023-05-12T14:18:38.131Z,22.79
2023-05-12T14:22:39.541Z,23.12
2023-05-12T14:26:40.983Z,23.97
2023-05-12T14:30:43.506Z,24.04
2023-05-12T14:34:45.086Z,23.85
2023-05-12T14:38:48.726Z,24.33
2023-05-12T14:42:50.647Z,23.56
2023-05-12T14:46:51.986Z,23.20
2023-05-12T14:50:54.711Z,23.64
2023-05-12T14:54:56.175Z,24.52
2023-05-12T14:58:57.444Z,24.33
2023-05-12T15:02:58.876Z,24.18
2023-05-12T15:07:00.252Z,23.61
2023-05-12T15:11:01.656Z,23.85
2023-05-12T15:15:05.722Z,24.05
2023-05-12T15:19:07.611Z,24.08
2023-05-12T15:23:09.109Z,24.28
2023-05-12T15:27:10.560Z,24.57
2023-05-12T15:31:11.983Z,24.49
2023-05-12T15:35:13.512Z,25.52
2023-05-12T15:39:16.227Z,24.55
2023-05-12T15:43:18.144Z,24.16
2023-05-12T15:47:19.502Z,24.20
2023-05-12T15:51:20.961Z,24.00
2023-05-12T15:55:22.647Z,24.68
2023-05-12T15:59:24.279Z,24.57
2023-05-12T16:03:25.891Z,25.64
2023-05-12T16:07:29.461Z,25.28
2023-05-12T16:11:30.827Z,25.98
2023-05-12T16:15:32.200Z,25.14
2023-05-12T16:19:33.573Z,24.08
2023-05-12T16:23:35.091Z,23.88
2023-05-12T16:27:36.704Z,24.29
2023-05-12T16:31:38.575Z,25.20
2023-05-12T16:35:40.137Z,24.93
2023-05-12T16:39:41.423Z,25.08
2023-05-12T16:43:42.900Z,25.74
2023-05-12T16:47:44.355Z,25.65
2023-05-12T16:51:46.590Z,24.60
2023-05-12T16:55:47.918Z,26.99
2023-05-12T16:59:49.460Z,26.88
2023-05-12T17:03:51.012Z,29.53
2023-05-12T17:07:52.547Z,30.12
2023-05-12T17:11:53.902Z,28.67
2023-05-12T17:15:55.298Z,29.23
2023-05-12T17:19:56.907Z,29.34
2023-05-12T17:23:58.275Z,29.24
2023-05-12T17:27:59.732Z,33.87
2023-05-12T17:32:02.048Z,33.73
2023-05-12T17:36:12.515Z,38.12
2023-05-12T17:40:16.733Z,39.20
2023-05-12T17:44:18.119Z,37.70
2023-05-12T17:48:19.413Z,35.91
2023-05-12T17:52:20.738Z,35.17
2023-05-12T17:56:22.288Z,38.14
2023-05-12T18:00:23.674Z,36.54
2023-05-12T18:04:25.285Z,35.46
2023-05-12T18:08:27.162Z,34.99
2023-05-12T18:12:28.687Z,35.54
2023-05-12T18:16:30.052Z,37.62
2023-05-12T18:20:31.416Z,36.12
2023-05-12T18:24:32.762Z,34.69
2023-05-12T18:28:34.074Z,36.88
2023-05-12T18:32:35.771Z,36.03
2023-05-12T18:36:37.176Z,36.01
2023-05-12T18:40:38.781Z,36.09
2023-05-12T18:44:41.088Z,34.83
2023-05-12T18:48:42.453Z,35.94
2023-05-12T18:52:43.789Z,35.69
2023-05-12T18:56:47.133Z,35.81
2023-05-12T19:00:48.595Z,37.33
2023-05-12T19:04:50.020Z,36.44
2023-05-12T19:08:51.426Z,36.31
2023-05-12T19:12:53.218Z,38.73
2023-05-12T19:16:54.505Z,37.54
2023-05-12T19:20:55.915Z,37.95
2023-05-12T19:24:57.403Z,38.65
2023-05-12T19:29:00.353Z,37.60
2023-05-12T19:33:01.711Z,40.16
2023-05-12T19:37:03.281Z,39.28
2023-05-12T19:41:04.774Z,39.20
2023-05-12T19:45:06.970Z,41.02
2023-05-12T19:49:08.447Z,39.75
2023-05-12T19:53:09.744Z,39.33
2023-05-12T19:57:11.245Z,39.09
2023-05-12T20:01:12.600Z,40.67
2023-05-12T20:05:14.110Z,40.43
2023-05-12T20:09:15.510Z,38.60
2023-05-12T20:13:16.839Z,38.72
2023-05-12T20:17:18.397Z,39.80
2023-05-12T20:21:19.824Z,42.54
2023-05-12T20:25:21.305Z,42.23
2023-05-12T20:29:25.467Z,39.54
2023-05-12T20:33:26.846Z,39.96
2023-05-12T20:37:28.136Z,39.78
2023-05-12T20:41:29.500Z,39.79
2023-05-12T20:45:30.884Z,40.20
2023-05-12T20:49:32.499Z,40.12
2023-05-12T20:53:33.892Z,41.89
2023-05-12T20:57:35.724Z,40.92
2023-05-12T21:01:37.131Z,41.56
2023-05-12T21:05:39.027Z,43.29
2023-05-12T21:09:40.469Z,44.83
2023-05-12T21:13:42.564Z,42.34
2023-05-12T21:17:43.982Z,42.40
2023-05-12T21:21:45.695Z,41.23
2023-05-12T21:25:48.893Z,41.10
2023-05-12T21:29:50.202Z,41.84
2023-05-12T21:33:51.504Z,41.96
2023-05-12T21:37:52.956Z,42.37
2023-05-12T21:41:54.356Z,41.58
2023-05-12T21:45:55.801Z,41.58
2023-05-12T21:49:57.184Z,41.57
2023-05-12T21:53:59.304Z,41.26
2023-05-12T21:58:00.678Z,41.39
2023-05-12T22:02:02.096Z,42.02
2023-05-12T22:06:03.604Z,42.47
2023-05-12T22:10:05.987Z,41.67
2023-05-12T22:14:07.529Z,41.89
2023-05-12T22:18:08.897Z,42.12
2023-05-12T22:22:10.251Z,41.77
2023-05-12T22:26:12.033Z,42.18
2023-05-12T22:30:13.734Z,42.24
2023-05-12T22:34:15.460Z,42.28
2023-05-12T22:38:16.877Z,42.04
2023-05-12T22:42:18.237Z,42.04
2023-05-12T22:46:19.731Z,42.04
2023-05-12T22:50:21.548Z,42.15
2023-05-12T22:54:23.005Z,42.05
2023-05-12T22:58:25.374Z,42.15
2023-05-12T23:02:26.737Z,42.20
2023-05-12T23:06:28.109Z,42.91
2023-05-12T23:10:29.607Z,42.58
2023-05-12T23:14:31.015Z,42.61
2023-05-12T23:18:32.461Z,42.67
2023-05-12T23:22:36.744Z,43.42
2023-05-12T23:26:38.066Z,43.40
2023-05-12T23:30:39.409Z,43.48
2023-05-12T23:34:40.753Z,43.31
2023-05-12T23:38:42.134Z,43.41
2023-05-12T23:42:43.428Z,43.60
2023-05-12T23:46:44.759Z,42.99
2023-05-12T23:50:46.159Z,42.83
2023-05-12T23:54:47.635Z,42.69
2023-05-12T23:58:49.088Z,43.03
